Newcastle, Nebraska
Current Conditions -  °F | °C
As of 6:55 PM on Tuesday 21 Oct 2014 (Local Time) from KLCG Reporting Station
Clear Clear  
Wind Chill: 66°   Ceiling: Unl
Heat Index: 66°   Visibility: 10mi
Dew Point: 44°   Wind: 10mph
Humidity: 46%   Direction: 140°SE
Pressure: 30"   Gusts: NA
Location:  42.65°N, 96.87°W
Report Text: KLCG 212355Z AUTO 14009KT 10SM CLR 19/07 A3000 RMK AO2 T01870067 10255 20187
Loading
Personal Weather Stations






























Interactive Weather Map
Tropical Storm Tracking
New forecast layout! Learn more

10-Day Weather Forecast

Advertisements
Track Severe Weather on mobile